sensor_id;sensor_type;location;lat;lon;timestamp;P1;durP1;ratioP1;P2;durP2;ratioP2
75246;SDS011;63844;50.042;19.224;2023-03-14T00:02:14;3.00;;;1.10;;
75246;SDS011;63844;50.042;19.224;2023-03-14T00:04:40;1.90;;;0.60;;
75246;SDS011;63844;50.042;19.224;2023-03-14T00:07:07;2.60;;;1.00;;
75246;SDS011;63844;50.042;19.224;2023-03-14T00:09:36;2.20;;;0.90;;
75246;SDS011;63844;50.042;19.224;2023-03-14T00:12:03;2.50;;;1.10;;
75246;SDS011;63844;50.042;19.224;2023-03-14T00:14:31;1.90;;;1.00;;
75246;SDS011;63844;50.042;19.224;2023-03-14T00:16:58;2.20;;;1.20;;
75246;SDS011;63844;50.042;19.224;2023-03-14T00:19:24;2.00;;;1.20;;
75246;SDS011;63844;50.042;19.224;2023-03-14T00:21:50;4.80;;;1.90;;
75246;SDS011;63844;50.042;19.224;2023-03-14T00:24:17;4.50;;;1.60;;
75246;SDS011;63844;50.042;19.224;2023-03-14T00:26:43;2.70;;;1.20;;
75246;SDS011;63844;50.042;19.224;2023-03-14T00:29:10;2.00;;;0.90;;
75246;SDS011;63844;50.042;19.224;2023-03-14T00:31:36;2.20;;;1.10;;
75246;SDS011;63844;50.042;19.224;2023-03-14T00:34:03;3.10;;;1.00;;
75246;SDS011;63844;50.042;19.224;2023-03-14T00:36:29;2.10;;;1.00;;
75246;SDS011;63844;50.042;19.224;2023-03-14T00:38:56;2.60;;;1.20;;
75246;SDS011;63844;50.042;19.224;2023-03-14T00:41:22;2.10;;;1.00;;
75246;SDS011;63844;50.042;19.224;2023-03-14T00:43:49;3.30;;;0.80;;
75246;SDS011;63844;50.042;19.224;2023-03-14T00:46:17;2.90;;;1.20;;
75246;SDS011;63844;50.042;19.224;2023-03-14T00:51:11;2.30;;;0.80;;
75246;SDS011;63844;50.042;19.224;2023-03-14T00:53:41;2.20;;;1.00;;
75246;SDS011;63844;50.042;19.224;2023-03-14T00:56:09;4.40;;;0.80;;
75246;SDS011;63844;50.042;19.224;2023-03-14T00:58:38;1.90;;;0.80;;
75246;SDS011;63844;50.042;19.224;2023-03-14T01:01:15;1.70;;;0.50;;
75246;SDS011;63844;50.042;19.224;2023-03-14T01:03:42;1.60;;;0.60;;
75246;SDS011;63844;50.042;19.224;2023-03-14T01:06:10;1.10;;;0.50;;
75246;SDS011;63844;50.042;19.224;2023-03-14T01:08:41;1.30;;;0.60;;
75246;SDS011;63844;50.042;19.224;2023-03-14T01:11:09;5.40;;;0.50;;
75246;SDS011;63844;50.042;19.224;2023-03-14T01:13:36;1.80;;;0.70;;
75246;SDS011;63844;50.042;19.224;2023-03-14T01:16:03;0.60;;;0.30;;
75246;SDS011;63844;50.042;19.224;2023-03-14T01:18:33;1.30;;;0.70;;
75246;SDS011;63844;50.042;19.224;2023-03-14T01:21:02;1.50;;;0.70;;
75246;SDS011;63844;50.042;19.224;2023-03-14T01:23:30;1.50;;;0.60;;
75246;SDS011;63844;50.042;19.224;2023-03-14T01:25:56;2.40;;;1.00;;
75246;SDS011;63844;50.042;19.224;2023-03-14T01:28:24;3.10;;;1.40;;
75246;SDS011;63844;50.042;19.224;2023-03-14T01:30:50;13.10;;;1.10;;
75246;SDS011;63844;50.042;19.224;2023-03-14T01:33:17;2.00;;;1.00;;
75246;SDS011;63844;50.042;19.224;2023-03-14T01:35:43;2.20;;;1.10;;
75246;SDS011;63844;50.042;19.224;2023-03-14T01:38:10;1.10;;;0.60;;
75246;SDS011;63844;50.042;19.224;2023-03-14T01:40:43;1.90;;;0.80;;
75246;SDS011;63844;50.042;19.224;2023-03-14T01:43:14;1.90;;;0.90;;
75246;SDS011;63844;50.042;19.224;2023-03-14T01:48:25;2.00;;;0.60;;
75246;SDS011;63844;50.042;19.224;2023-03-14T01:50:54;1.30;;;0.70;;
75246;SDS011;63844;50.042;19.224;2023-03-14T01:53:21;2.40;;;1.20;;
75246;SDS011;63844;50.042;19.224;2023-03-14T01:55:48;1.70;;;0.70;;
75246;SDS011;63844;50.042;19.224;2023-03-14T01:58:16;1.60;;;0.70;;
75246;SDS011;63844;50.042;19.224;2023-03-14T02:00:43;2.00;;;0.80;;
75246;SDS011;63844;50.042;19.224;2023-03-14T02:03:11;2.10;;;0.90;;
75246;SDS011;63844;50.042;19.224;2023-03-14T02:05:42;3.80;;;0.90;;
75246;SDS011;63844;50.042;19.224;2023-03-14T02:08:11;1.50;;;0.70;;
75246;SDS011;63844;50.042;19.224;2023-03-14T02:10:44;1.50;;;0.50;;
75246;SDS011;63844;50.042;19.224;2023-03-14T02:13:12;2.30;;;0.40;;
75246;SDS011;63844;50.042;19.224;2023-03-14T02:15:40;1.80;;;0.70;;
75246;SDS011;63844;50.042;19.224;2023-03-14T02:18:06;1.40;;;0.70;;
75246;SDS011;63844;50.042;19.224;2023-03-14T02:23:10;0.70;;;0.40;;
75246;SDS011;63844;50.042;19.224;2023-03-14T02:25:39;1.90;;;0.70;;
75246;SDS011;63844;50.042;19.224;2023-03-14T02:28:12;1.00;;;0.60;;
75246;SDS011;63844;50.042;19.224;2023-03-14T02:30:38;1.70;;;0.70;;
75246;SDS011;63844;50.042;19.224;2023-03-14T02:33:09;2.00;;;0.40;;
75246;SDS011;63844;50.042;19.224;2023-03-14T02:35:44;2.00;;;0.80;;
75246;SDS011;63844;50.042;19.224;2023-03-14T02:40:59;1.50;;;0.70;;
75246;SDS011;63844;50.042;19.224;2023-03-14T02:43:25;3.50;;;1.00;;
75246;SDS011;63844;50.042;19.224;2023-03-14T02:45:52;3.50;;;0.90;;
75246;SDS011;63844;50.042;19.224;2023-03-14T02:48:26;2.10;;;0.80;;
75246;SDS011;63844;50.042;19.224;2023-03-14T02:50:57;1.10;;;0.50;;
75246;SDS011;63844;50.042;19.224;2023-03-14T02:53:32;1.80;;;1.00;;
75246;SDS011;63844;50.042;19.224;2023-03-14T02:56:00;2.10;;;0.70;;
75246;SDS011;63844;50.042;19.224;2023-03-14T02:58:28;2.10;;;1.00;;
75246;SDS011;63844;50.042;19.224;2023-03-14T03:00:55;2.20;;;0.70;;
75246;SDS011;63844;50.042;19.224;2023-03-14T03:03:21;3.70;;;1.10;;
75246;SDS011;63844;50.042;19.224;2023-03-14T03:05:52;4.40;;;1.50;;
75246;SDS011;63844;50.042;19.224;2023-03-14T03:08:20;2.40;;;1.20;;
75246;SDS011;63844;50.042;19.224;2023-03-14T03:10:48;4.50;;;1.60;;
75246;SDS011;63844;50.042;19.224;2023-03-14T03:15:42;4.00;;;2.60;;
75246;SDS011;63844;50.042;19.224;2023-03-14T03:18:08;6.30;;;3.10;;
75246;SDS011;63844;50.042;19.224;2023-03-14T03:20:35;9.00;;;3.60;;
75246;SDS011;63844;50.042;19.224;2023-03-14T03:23:01;8.10;;;4.60;;
75246;SDS011;63844;50.042;19.224;2023-03-14T03:25:28;9.40;;;4.80;;
75246;SDS011;63844;50.042;19.224;2023-03-14T03:27:55;12.50;;;5.50;;
75246;SDS011;63844;50.042;19.224;2023-03-14T03:30:22;10.70;;;5.50;;
75246;SDS011;63844;50.042;19.224;2023-03-14T03:35:15;8.80;;;4.20;;
75246;SDS011;63844;50.042;19.224;2023-03-14T03:37:42;9.60;;;4.80;;
75246;SDS011;63844;50.042;19.224;2023-03-14T03:40:08;12.40;;;5.50;;
75246;SDS011;63844;50.042;19.224;2023-03-14T03:42:36;13.70;;;6.30;;
75246;SDS011;63844;50.042;19.224;2023-03-14T03:45:03;11.40;;;5.60;;
75246;SDS011;63844;50.042;19.224;2023-03-14T03:47:30;15.60;;;7.60;;
75246;SDS011;63844;50.042;19.224;2023-03-14T03:49:57;13.40;;;5.40;;
75246;SDS011;63844;50.042;19.224;2023-03-14T03:52:23;9.20;;;3.40;;
75246;SDS011;63844;50.042;19.224;2023-03-14T03:54:50;9.30;;;4.50;;
75246;SDS011;63844;50.042;19.224;2023-03-14T03:57:16;11.90;;;5.20;;
75246;SDS011;63844;50.042;19.224;2023-03-14T03:59:43;18.70;;;7.40;;
75246;SDS011;63844;50.042;19.224;2023-03-14T04:02:09;18.00;;;8.60;;
75246;SDS011;63844;50.042;19.224;2023-03-14T04:04:36;23.30;;;9.60;;
75246;SDS011;63844;50.042;19.224;2023-03-14T04:07:03;23.20;;;10.30;;
75246;SDS011;63844;50.042;19.224;2023-03-14T04:09:30;19.40;;;8.70;;
75246;SDS011;63844;50.042;19.224;2023-03-14T04:14:23;21.40;;;9.30;;
75246;SDS011;63844;50.042;19.224;2023-03-14T04:16:50;19.70;;;8.90;;
75246;SDS011;63844;50.042;19.224;2023-03-14T04:19:16;19.50;;;8.70;;
75246;SDS011;63844;50.042;19.224;2023-03-14T04:21:43;16.90;;;8.20;;
75246;SDS011;63844;50.042;19.224;2023-03-14T04:24:13;13.60;;;6.50;;
75246;SDS011;63844;50.042;19.224;2023-03-14T04:26:39;16.10;;;7.80;;
75246;SDS011;63844;50.042;19.224;2023-03-14T04:29:06;13.80;;;7.50;;
75246;SDS011;63844;50.042;19.224;2023-03-14T04:31:32;15.90;;;8.00;;
75246;SDS011;63844;50.042;19.224;2023-03-14T04:33:59;17.10;;;7.20;;
75246;SDS011;63844;50.042;19.224;2023-03-14T04:36:25;14.80;;;7.80;;
75246;SDS011;63844;50.042;19.224;2023-03-14T04:38:51;16.00;;;7.80;;
75246;SDS011;63844;50.042;19.224;2023-03-14T04:41:18;15.10;;;7.10;;
75246;SDS011;63844;50.042;19.224;2023-03-14T04:43:44;13.90;;;6.90;;
75246;SDS011;63844;50.042;19.224;2023-03-14T04:46:11;14.30;;;7.50;;
75246;SDS011;63844;50.042;19.224;2023-03-14T04:48:37;17.00;;;7.80;;
75246;SDS011;63844;50.042;19.224;2023-03-14T04:51:04;14.10;;;7.20;;
75246;SDS011;63844;50.042;19.224;2023-03-14T04:55:57;18.70;;;7.40;;
75246;SDS011;63844;50.042;19.224;2023-03-14T04:58:24;18.20;;;7.00;;
75246;SDS011;63844;50.042;19.224;2023-03-14T05:00:50;13.50;;;6.40;;
75246;SDS011;63844;50.042;19.224;2023-03-14T05:03:17;15.60;;;6.20;;
75246;SDS011;63844;50.042;19.224;2023-03-14T05:05:45;14.10;;;7.10;;
75246;SDS011;63844;50.042;19.224;2023-03-14T05:08:12;14.20;;;7.00;;
75246;SDS011;63844;50.042;19.224;2023-03-14T05:10:38;14.90;;;7.10;;
75246;SDS011;63844;50.042;19.224;2023-03-14T05:13:05;12.30;;;6.50;;
75246;SDS011;63844;50.042;19.224;2023-03-14T05:15:32;10.80;;;5.60;;
75246;SDS011;63844;50.042;19.224;2023-03-14T05:17:58;8.40;;;4.40;;
75246;SDS011;63844;50.042;19.224;2023-03-14T05:20:25;9.60;;;4.40;;
75246;SDS011;63844;50.042;19.224;2023-03-14T05:22:52;11.80;;;5.50;;
75246;SDS011;63844;50.042;19.224;2023-03-14T05:25:18;13.00;;;6.00;;
75246;SDS011;63844;50.042;19.224;2023-03-14T05:27:44;9.20;;;4.20;;
75246;SDS011;63844;50.042;19.224;2023-03-14T05:30:11;6.10;;;3.30;;
75246;SDS011;63844;50.042;19.224;2023-03-14T05:35:04;10.50;;;4.00;;
75246;SDS011;63844;50.042;19.224;2023-03-14T05:37:31;6.20;;;3.60;;
75246;SDS011;63844;50.042;19.224;2023-03-14T05:39:57;10.70;;;5.00;;
75246;SDS011;63844;50.042;19.224;2023-03-14T05:42:24;8.70;;;4.50;;
75246;SDS011;63844;50.042;19.224;2023-03-14T05:44:50;10.90;;;4.90;;
75246;SDS011;63844;50.042;19.224;2023-03-14T05:47:17;9.70;;;4.90;;
75246;SDS011;63844;50.042;19.224;2023-03-14T05:49:43;9.20;;;5.00;;
75246;SDS011;63844;50.042;19.224;2023-03-14T05:52:09;9.10;;;5.30;;
75246;SDS011;63844;50.042;19.224;2023-03-14T05:54:36;8.70;;;4.90;;
75246;SDS011;63844;50.042;19.224;2023-03-14T05:57:02;9.60;;;4.70;;
75246;SDS011;63844;50.042;19.224;2023-03-14T05:59:29;7.50;;;4.10;;
75246;SDS011;63844;50.042;19.224;2023-03-14T06:01:55;9.40;;;4.30;;
75246;SDS011;63844;50.042;19.224;2023-03-14T06:04:22;10.00;;;4.40;;
75246;SDS011;63844;50.042;19.224;2023-03-14T06:06:48;8.30;;;3.70;;
75246;SDS011;63844;50.042;19.224;2023-03-14T06:09:15;6.60;;;3.90;;
75246;SDS011;63844;50.042;19.224;2023-03-14T06:11:41;6.30;;;3.00;;
75246;SDS011;63844;50.042;19.224;2023-03-14T06:14:08;9.50;;;3.70;;
75246;SDS011;63844;50.042;19.224;2023-03-14T06:16:34;8.90;;;3.90;;
75246;SDS011;63844;50.042;19.224;2023-03-14T06:19:01;8.70;;;4.00;;
75246;SDS011;63844;50.042;19.224;2023-03-14T06:21:27;6.10;;;3.40;;
75246;SDS011;63844;50.042;19.224;2023-03-14T06:23:54;6.20;;;3.70;;
75246;SDS011;63844;50.042;19.224;2023-03-14T06:26:20;8.90;;;4.20;;
75246;SDS011;63844;50.042;19.224;2023-03-14T06:28:47;9.00;;;4.80;;
75246;SDS011;63844;50.042;19.224;2023-03-14T06:31:14;14.80;;;5.90;;
75246;SDS011;63844;50.042;19.224;2023-03-14T06:33:40;10.20;;;5.60;;
75246;SDS011;63844;50.042;19.224;2023-03-14T06:36:07;12.70;;;5.50;;
75246;SDS011;63844;50.042;19.224;2023-03-14T06:38:34;11.40;;;5.70;;
75246;SDS011;63844;50.042;19.224;2023-03-14T06:41:07;11.10;;;5.40;;
75246;SDS011;63844;50.042;19.224;2023-03-14T06:43:34;11.30;;;6.00;;
75246;SDS011;63844;50.042;19.224;2023-03-14T06:46:00;16.50;;;5.90;;
75246;SDS011;63844;50.042;19.224;2023-03-14T06:48:27;11.00;;;6.10;;
75246;SDS011;63844;50.042;19.224;2023-03-14T06:50:53;14.60;;;7.40;;
75246;SDS011;63844;50.042;19.224;2023-03-14T06:53:20;13.90;;;7.60;;
75246;SDS011;63844;50.042;19.224;2023-03-14T06:58:13;13.80;;;6.00;;
75246;SDS011;63844;50.042;19.224;2023-03-14T07:00:40;14.00;;;7.20;;
75246;SDS011;63844;50.042;19.224;2023-03-14T07:03:06;13.90;;;6.30;;
75246;SDS011;63844;50.042;19.224;2023-03-14T07:05:33;13.70;;;6.40;;
75246;SDS011;63844;50.042;19.224;2023-03-14T07:07:59;14.40;;;7.10;;
75246;SDS011;63844;50.042;19.224;2023-03-14T07:10:26;10.20;;;5.90;;
75246;SDS011;63844;50.042;19.224;2023-03-14T07:12:53;16.50;;;7.40;;
75246;SDS011;63844;50.042;19.224;2023-03-14T07:15:20;15.20;;;7.00;;
75246;SDS011;63844;50.042;19.224;2023-03-14T07:17:46;15.60;;;7.60;;
75246;SDS011;63844;50.042;19.224;2023-03-14T07:20:14;10.90;;;5.90;;
75246;SDS011;63844;50.042;19.224;2023-03-14T07:22:41;12.80;;;5.20;;
75246;SDS011;63844;50.042;19.224;2023-03-14T07:25:07;8.40;;;4.40;;
75246;SDS011;63844;50.042;19.224;2023-03-14T07:27:36;11.00;;;4.10;;
75246;SDS011;63844;50.042;19.224;2023-03-14T07:30:02;8.20;;;3.80;;
75246;SDS011;63844;50.042;19.224;2023-03-14T07:32:29;9.80;;;4.40;;
75246;SDS011;63844;50.042;19.224;2023-03-14T07:34:55;11.70;;;5.10;;
75246;SDS011;63844;50.042;19.224;2023-03-14T07:39:48;6.30;;;3.00;;
75246;SDS011;63844;50.042;19.224;2023-03-14T07:42:15;11.30;;;3.10;;
75246;SDS011;63844;50.042;19.224;2023-03-14T07:47:08;6.10;;;2.10;;
75246;SDS011;63844;50.042;19.224;2023-03-14T07:49:34;8.60;;;3.20;;
75246;SDS011;63844;50.042;19.224;2023-03-14T07:52:01;6.80;;;2.70;;
75246;SDS011;63844;50.042;19.224;2023-03-14T07:56:54;6.60;;;3.20;;
75246;SDS011;63844;50.042;19.224;2023-03-14T07:59:20;11.00;;;3.80;;
75246;SDS011;63844;50.042;19.224;2023-03-14T08:01:47;12.30;;;3.70;;
75246;SDS011;63844;50.042;19.224;2023-03-14T08:04:13;7.00;;;3.40;;
75246;SDS011;63844;50.042;19.224;2023-03-14T08:06:40;8.50;;;3.20;;
75246;SDS011;63844;50.042;19.224;2023-03-14T08:09:06;7.00;;;1.90;;
75246;SDS011;63844;50.042;19.224;2023-03-14T08:11:33;4.60;;;1.70;;
75246;SDS011;63844;50.042;19.224;2023-03-14T08:16:26;3.20;;;1.90;;
75246;SDS011;63844;50.042;19.224;2023-03-14T08:18:52;6.20;;;2.00;;
75246;SDS011;63844;50.042;19.224;2023-03-14T08:21:19;8.80;;;1.70;;
75246;SDS011;63844;50.042;19.224;2023-03-14T08:23:45;2.90;;;1.40;;
75246;SDS011;63844;50.042;19.224;2023-03-14T08:26:11;2.60;;;1.60;;
75246;SDS011;63844;50.042;19.224;2023-03-14T08:28:38;2.70;;;1.50;;
75246;SDS011;63844;50.042;19.224;2023-03-14T08:31:04;3.80;;;1.60;;
75246;SDS011;63844;50.042;19.224;2023-03-14T08:33:31;6.80;;;2.10;;
75246;SDS011;63844;50.042;19.224;2023-03-14T08:35:59;3.40;;;1.50;;
75246;SDS011;63844;50.042;19.224;2023-03-14T08:38:26;4.70;;;1.50;;
75246;SDS011;63844;50.042;19.224;2023-03-14T08:40:57;3.10;;;1.60;;
75246;SDS011;63844;50.042;19.224;2023-03-14T08:43:24;3.60;;;1.20;;
75246;SDS011;63844;50.042;19.224;2023-03-14T08:45:51;3.00;;;1.70;;
75246;SDS011;63844;50.042;19.224;2023-03-14T08:50:45;3.00;;;1.30;;
75246;SDS011;63844;50.042;19.224;2023-03-14T08:53:12;5.40;;;2.00;;
75246;SDS011;63844;50.042;19.224;2023-03-14T08:58:05;4.80;;;1.70;;
75246;SDS011;63844;50.042;19.224;2023-03-14T09:00:31;5.50;;;2.00;;
75246;SDS011;63844;50.042;19.224;2023-03-14T09:02:58;3.80;;;1.50;;
75246;SDS011;63844;50.042;19.224;2023-03-14T09:05:24;5.50;;;2.00;;
75246;SDS011;63844;50.042;19.224;2023-03-14T09:07:51;3.50;;;2.00;;
75246;SDS011;63844;50.042;19.224;2023-03-14T09:10:17;4.00;;;1.60;;
75246;SDS011;63844;50.042;19.224;2023-03-14T09:15:10;4.90;;;1.70;;
75246;SDS011;63844;50.042;19.224;2023-03-14T09:17:37;3.00;;;1.70;;
75246;SDS011;63844;50.042;19.224;2023-03-14T09:20:03;3.00;;;1.90;;
75246;SDS011;63844;50.042;19.224;2023-03-14T09:22:33;3.90;;;1.90;;
75246;SDS011;63844;50.042;19.224;2023-03-14T09:25:04;5.40;;;2.30;;
75246;SDS011;63844;50.042;19.224;2023-03-14T09:27:32;4.20;;;2.30;;
75246;SDS011;63844;50.042;19.224;2023-03-14T09:29:58;4.30;;;1.70;;
75246;SDS011;63844;50.042;19.224;2023-03-14T09:32:25;5.00;;;2.30;;
75246;SDS011;63844;50.042;19.224;2023-03-14T09:34:52;5.10;;;2.00;;
75246;SDS011;63844;50.042;19.224;2023-03-14T09:37:18;3.70;;;1.90;;
75246;SDS011;63844;50.042;19.224;2023-03-14T09:39:46;3.20;;;1.90;;
75246;SDS011;63844;50.042;19.224;2023-03-14T09:44:52;3.50;;;2.00;;
75246;SDS011;63844;50.042;19.224;2023-03-14T09:47:25;3.40;;;1.70;;
75246;SDS011;63844;50.042;19.224;2023-03-14T09:49:53;3.70;;;1.50;;
75246;SDS011;63844;50.042;19.224;2023-03-14T09:52:24;5.70;;;2.00;;
75246;SDS011;63844;50.042;19.224;2023-03-14T09:54:57;6.00;;;1.90;;
75246;SDS011;63844;50.042;19.224;2023-03-14T09:57:26;1.50;;;1.00;;
75246;SDS011;63844;50.042;19.224;2023-03-14T09:59:54;4.80;;;2.00;;
75246;SDS011;63844;50.042;19.224;2023-03-14T10:02:28;4.00;;;1.50;;
75246;SDS011;63844;50.042;19.224;2023-03-14T10:05:00;3.50;;;1.80;;
75246;SDS011;63844;50.042;19.224;2023-03-14T10:07:28;2.70;;;1.10;;
75246;SDS011;63844;50.042;19.224;2023-03-14T10:09:56;3.30;;;1.50;;
75246;SDS011;63844;50.042;19.224;2023-03-14T10:12:30;3.40;;;1.70;;
75246;SDS011;63844;50.042;19.224;2023-03-14T10:15:02;4.50;;;1.90;;
75246;SDS011;63844;50.042;19.224;2023-03-14T10:17:38;3.60;;;1.70;;
75246;SDS011;63844;50.042;19.224;2023-03-14T10:20:06;4.20;;;2.20;;
75246;SDS011;63844;50.042;19.224;2023-03-14T10:22:36;4.90;;;2.10;;
75246;SDS011;63844;50.042;19.224;2023-03-14T10:25:05;4.50;;;1.60;;
75246;SDS011;63844;50.042;19.224;2023-03-14T10:27:49;4.40;;;2.10;;
75246;SDS011;63844;50.042;19.224;2023-03-14T10:32:54;5.40;;;1.90;;
75246;SDS011;63844;50.042;19.224;2023-03-14T10:35:22;3.80;;;1.70;;
75246;SDS011;63844;50.042;19.224;2023-03-14T10:37:51;6.00;;;1.70;;
75246;SDS011;63844;50.042;19.224;2023-03-14T10:40:18;6.90;;;2.10;;
75246;SDS011;63844;50.042;19.224;2023-03-14T10:42:50;7.10;;;2.10;;
75246;SDS011;63844;50.042;19.224;2023-03-14T10:45:34;7.30;;;1.90;;
75246;SDS011;63844;50.042;19.224;2023-03-14T10:51:05;4.10;;;2.50;;
75246;SDS011;63844;50.042;19.224;2023-03-14T10:53:46;6.40;;;1.60;;
75246;SDS011;63844;50.042;19.224;2023-03-14T10:56:25;6.70;;;2.40;;
75246;SDS011;63844;50.042;19.224;2023-03-14T10:58:54;5.80;;;2.10;;
75246;SDS011;63844;50.042;19.224;2023-03-14T11:01:44;4.10;;;1.70;;
75246;SDS011;63844;50.042;19.224;2023-03-14T11:09:33;4.20;;;2.00;;
75246;SDS011;63844;50.042;19.224;2023-03-14T11:12:52;4.90;;;2.50;;
75246;SDS011;63844;50.042;19.224;2023-03-14T11:18:05;5.60;;;2.20;;
75246;SDS011;63844;50.042;19.224;2023-03-14T11:20:59;6.10;;;2.50;;
75246;SDS011;63844;50.042;19.224;2023-03-14T11:23:39;4.60;;;2.10;;
75246;SDS011;63844;50.042;19.224;2023-03-14T11:31:53;4.50;;;2.30;;
75246;SDS011;63844;50.042;19.224;2023-03-14T11:37:04;6.50;;;2.90;;
75246;SDS011;63844;50.042;19.224;2023-03-14T11:39:36;7.70;;;4.30;;
75246;SDS011;63844;50.042;19.224;2023-03-14T11:42:11;7.10;;;3.30;;
75246;SDS011;63844;50.042;19.224;2023-03-14T11:44:41;7.70;;;4.80;;
75246;SDS011;63844;50.042;19.224;2023-03-14T11:47:15;6.40;;;4.40;;
75246;SDS011;63844;50.042;19.224;2023-03-14T11:49:50;6.10;;;3.30;;
75246;SDS011;63844;50.042;19.224;2023-03-14T11:52:32;5.20;;;3.00;;
75246;SDS011;63844;50.042;19.224;2023-03-14T11:57:44;5.60;;;2.90;;
75246;SDS011;63844;50.042;19.224;2023-03-14T12:00:18;5.30;;;2.70;;
75246;SDS011;63844;50.042;19.224;2023-03-14T12:13:54;6.30;;;2.90;;
75246;SDS011;63844;50.042;19.224;2023-03-14T12:18:50;9.50;;;3.40;;
75246;SDS011;63844;50.042;19.224;2023-03-14T12:21:18;9.90;;;4.00;;
75246;SDS011;63844;50.042;19.224;2023-03-14T12:23:48;8.70;;;3.80;;
75246;SDS011;63844;50.042;19.224;2023-03-14T12:26:19;9.30;;;4.10;;
75246;SDS011;63844;50.042;19.224;2023-03-14T12:31:35;9.60;;;3.50;;
75246;SDS011;63844;50.042;19.224;2023-03-14T12:34:24;9.30;;;4.20;;
75246;SDS011;63844;50.042;19.224;2023-03-14T12:37:05;8.10;;;3.10;;
75246;SDS011;63844;50.042;19.224;2023-03-14T12:45:13;5.80;;;3.20;;
75246;SDS011;63844;50.042;19.224;2023-03-14T12:47:46;4.60;;;2.80;;
75246;SDS011;63844;50.042;19.224;2023-03-14T12:50:19;5.40;;;2.90;;
75246;SDS011;63844;50.042;19.224;2023-03-14T12:55:44;6.10;;;2.90;;
75246;SDS011;63844;50.042;19.224;2023-03-14T13:03:39;6.20;;;2.80;;
75246;SDS011;63844;50.042;19.224;2023-03-14T13:06:11;5.40;;;2.60;;
75246;SDS011;63844;50.042;19.224;2023-03-14T13:08:44;7.90;;;4.00;;
75246;SDS011;63844;50.042;19.224;2023-03-14T13:11:18;10.30;;;5.30;;
75246;SDS011;63844;50.042;19.224;2023-03-14T13:13:47;5.50;;;2.90;;
75246;SDS011;63844;50.042;19.224;2023-03-14T13:16:17;28.70;;;12.50;;
75246;SDS011;63844;50.042;19.224;2023-03-14T13:19:11;16.60;;;8.10;;
75246;SDS011;63844;50.042;19.224;2023-03-14T13:21:44;6.50;;;3.10;;
75246;SDS011;63844;50.042;19.224;2023-03-14T13:24:20;8.70;;;5.40;;
75246;SDS011;63844;50.042;19.224;2023-03-14T13:26:52;6.70;;;4.20;;
75246;SDS011;63844;50.042;19.224;2023-03-14T13:29:20;10.20;;;7.00;;
75246;SDS011;63844;50.042;19.224;2023-03-14T13:31:50;7.50;;;3.80;;
75246;SDS011;63844;50.042;19.224;2023-03-14T13:34:18;5.00;;;2.50;;
75246;SDS011;63844;50.042;19.224;2023-03-14T13:39:18;7.00;;;3.20;;
75246;SDS011;63844;50.042;19.224;2023-03-14T13:41:48;2.50;;;1.60;;
75246;SDS011;63844;50.042;19.224;2023-03-14T13:44:21;2.70;;;1.60;;
75246;SDS011;63844;50.042;19.224;2023-03-14T13:46:51;3.00;;;2.00;;
75246;SDS011;63844;50.042;19.224;2023-03-14T13:49:21;3.30;;;1.90;;
75246;SDS011;63844;50.042;19.224;2023-03-14T13:51:50;4.80;;;2.40;;
75246;SDS011;63844;50.042;19.224;2023-03-14T13:54:20;3.10;;;1.60;;
75246;SDS011;63844;50.042;19.224;2023-03-14T13:56:48;3.90;;;1.50;;
75246;SDS011;63844;50.042;19.224;2023-03-14T13:59:26;5.60;;;2.40;;
75246;SDS011;63844;50.042;19.224;2023-03-14T14:01:54;3.40;;;2.30;;
75246;SDS011;63844;50.042;19.224;2023-03-14T14:04:23;3.60;;;1.80;;
75246;SDS011;63844;50.042;19.224;2023-03-14T14:06:53;6.00;;;2.10;;
75246;SDS011;63844;50.042;19.224;2023-03-14T14:09:23;3.60;;;2.30;;
75246;SDS011;63844;50.042;19.224;2023-03-14T14:11:53;6.40;;;3.40;;
75246;SDS011;63844;50.042;19.224;2023-03-14T14:14:25;7.70;;;3.40;;
75246;SDS011;63844;50.042;19.224;2023-03-14T14:16:54;4.50;;;2.60;;
75246;SDS011;63844;50.042;19.224;2023-03-14T14:19:22;7.00;;;2.30;;
75246;SDS011;63844;50.042;19.224;2023-03-14T14:21:50;4.90;;;1.40;;
75246;SDS011;63844;50.042;19.224;2023-03-14T14:24:16;2.90;;;1.90;;
75246;SDS011;63844;50.042;19.224;2023-03-14T14:26:47;2.70;;;2.20;;
75246;SDS011;63844;50.042;19.224;2023-03-14T14:29:25;4.20;;;1.70;;
75246;SDS011;63844;50.042;19.224;2023-03-14T14:32:17;4.20;;;2.60;;
75246;SDS011;63844;50.042;19.224;2023-03-14T14:34:44;3.80;;;2.60;;
75246;SDS011;63844;50.042;19.224;2023-03-14T14:37:19;2.70;;;1.70;;
75246;SDS011;63844;50.042;19.224;2023-03-14T14:39:47;6.60;;;2.10;;
75246;SDS011;63844;50.042;19.224;2023-03-14T14:42:16;4.20;;;2.30;;
75246;SDS011;63844;50.042;19.224;2023-03-14T14:44:44;3.50;;;2.10;;
75246;SDS011;63844;50.042;19.224;2023-03-14T14:47:15;3.90;;;2.10;;
75246;SDS011;63844;50.042;19.224;2023-03-14T14:49:44;4.60;;;1.60;;
75246;SDS011;63844;50.042;19.224;2023-03-14T14:52:14;3.40;;;1.60;;
75246;SDS011;63844;50.042;19.224;2023-03-14T14:54:53;5.30;;;2.00;;
75246;SDS011;63844;50.042;19.224;2023-03-14T14:57:25;3.30;;;1.70;;
75246;SDS011;63844;50.042;19.224;2023-03-14T15:00:00;5.20;;;1.80;;
75246;SDS011;63844;50.042;19.224;2023-03-14T15:02:37;5.30;;;1.90;;
75246;SDS011;63844;50.042;19.224;2023-03-14T15:05:15;4.20;;;2.20;;
75246;SDS011;63844;50.042;19.224;2023-03-14T15:07:46;4.60;;;2.10;;
75246;SDS011;63844;50.042;19.224;2023-03-14T15:10:15;4.40;;;1.60;;
75246;SDS011;63844;50.042;19.224;2023-03-14T15:12:44;5.00;;;1.50;;
75246;SDS011;63844;50.042;19.224;2023-03-14T15:15:11;3.10;;;1.70;;
75246;SDS011;63844;50.042;19.224;2023-03-14T15:17:38;3.50;;;2.00;;
75246;SDS011;63844;50.042;19.224;2023-03-14T15:20:05;3.10;;;1.50;;
75246;SDS011;63844;50.042;19.224;2023-03-14T15:22:35;2.40;;;1.30;;
75246;SDS011;63844;50.042;19.224;2023-03-14T15:25:02;2.40;;;1.20;;
75246;SDS011;63844;50.042;19.224;2023-03-14T15:27:29;15.50;;;1.70;;
75246;SDS011;63844;50.042;19.224;2023-03-14T15:29:59;3.60;;;2.10;;
75246;SDS011;63844;50.042;19.224;2023-03-14T15:32:26;3.80;;;1.40;;
75246;SDS011;63844;50.042;19.224;2023-03-14T15:34:56;6.20;;;1.70;;
75246;SDS011;63844;50.042;19.224;2023-03-14T15:37:22;5.50;;;1.50;;
75246;SDS011;63844;50.042;19.224;2023-03-14T15:39:49;3.60;;;1.90;;
75246;SDS011;63844;50.042;19.224;2023-03-14T15:42:16;6.20;;;1.90;;
75246;SDS011;63844;50.042;19.224;2023-03-14T15:44:42;5.30;;;1.70;;
75246;SDS011;63844;50.042;19.224;2023-03-14T15:47:09;6.10;;;1.50;;
75246;SDS011;63844;50.042;19.224;2023-03-14T15:49:37;6.90;;;2.50;;
75246;SDS011;63844;50.042;19.224;2023-03-14T15:52:03;7.20;;;2.70;;
75246;SDS011;63844;50.042;19.224;2023-03-14T15:56:57;5.90;;;1.90;;
75246;SDS011;63844;50.042;19.224;2023-03-14T15:59:24;5.70;;;3.00;;
75246;SDS011;63844;50.042;19.224;2023-03-14T16:01:51;5.40;;;2.30;;
75246;SDS011;63844;50.042;19.224;2023-03-14T16:04:18;4.10;;;2.80;;
75246;SDS011;63844;50.042;19.224;2023-03-14T16:06:44;4.90;;;1.90;;
75246;SDS011;63844;50.042;19.224;2023-03-14T16:11:38;6.70;;;3.00;;
75246;SDS011;63844;50.042;19.224;2023-03-14T16:14:06;6.10;;;2.60;;
75246;SDS011;63844;50.042;19.224;2023-03-14T16:16:32;7.70;;;3.40;;
75246;SDS011;63844;50.042;19.224;2023-03-14T16:18:59;3.80;;;2.50;;
75246;SDS011;63844;50.042;19.224;2023-03-14T16:21:26;4.40;;;2.80;;
75246;SDS011;63844;50.042;19.224;2023-03-14T16:23:52;6.30;;;2.80;;
75246;SDS011;63844;50.042;19.224;2023-03-14T16:28:46;5.40;;;2.50;;
75246;SDS011;63844;50.042;19.224;2023-03-14T16:31:14;5.50;;;2.50;;